Time;durP1;ratioP1;P1;durP2;ratioP2;P2;SDS_P1;SDS_P2;PMS_P1;PMS_P2;Temp;Humidity;BMP_temperature;BMP_pressure;BME280_temperature;BME280_humidity;BME280_pressure;Samples;Min_cycle;Max_cycle;Signal;HPM_P1;HPM_P2
2023/07/20 00:01:13;;;;;;;12.20;5.90;;;537.70;2406.40;;;;;;5090474;28;20035;-63
2023/07/20 00:03:39;;;;;;;17.38;6.68;;;537.70;2406.40;;;;;;5091022;28;20028;-63
2023/07/20 00:06:05;;;;;;;18.30;5.63;;;537.90;2406.40;;;;;;5091176;28;20012;-63
2023/07/20 00:08:31;;;;;;;15.38;6.18;;;538.00;2406.40;;;;;;5090231;28;20028;-65
2023/07/20 00:10:56;;;;;;;8.63;6.43;;;537.90;2406.40;;;;;;5091245;28;20024;-64
2023/07/20 00:13:22;;;;;;;8.55;5.70;;;537.80;2406.40;;;;;;5091238;28;20016;-64
2023/07/20 00:15:48;;;;;;;17.33;6.15;;;537.70;2406.40;;;;;;5090837;28;20032;-61
2023/07/20 00:18:14;;;;;;;13.48;6.45;;;537.70;2406.40;;;;;;5090726;28;20074;-63
2023/07/20 00:20:40;;;;;;;11.73;5.43;;;537.60;2406.40;;;;;;5090808;28;20059;-63
2023/07/20 00:23:06;;;;;;;12.77;5.60;;;537.70;2406.40;;;;;;5091269;28;20020;-65
2023/07/20 00:25:32;;;;;;;15.95;5.85;;;512.90;2380.80;;;;;;5090649;28;20086;-64
2023/07/20 00:27:57;;;;;;;14.38;5.07;;;512.90;2380.80;;;;;;5091335;28;20024;-64
2023/07/20 00:30:23;;;;;;;10.98;5.35;;;512.90;2380.80;;;;;;5090722;28;20020;-67
2023/07/20 00:32:49;;;;;;;14.27;6.20;;;512.90;2380.80;;;;;;5090531;28;20028;-64
2023/07/20 00:35:14;;;;;;;12.40;5.35;;;512.80;2380.80;;;;;;5090745;28;20082;-62
2023/07/20 00:37:40;;;;;;;9.20;5.20;;;512.90;2380.80;;;;;;5090459;28;20020;-64
2023/07/20 00:40:09;;;;;;;12.40;6.10;;;512.80;2380.80;;;;;;5090585;28;20035;-66
2023/07/20 00:42:35;;;;;;;17.10;5.70;;;512.80;2380.80;;;;;;5090898;28;20102;-67
2023/07/20 00:45:02;;;;;;;12.55;5.45;;;512.80;2380.80;;;;;;5090022;28;20469;-65
2023/07/20 00:47:28;;;;;;;11.27;6.20;;;512.80;2380.80;;;;;;5090302;28;20052;-64
2023/07/20 00:49:54;;;;;;;10.82;5.90;;;512.70;2380.80;;;;;;5090518;28;20059;-64
2023/07/20 00:52:23;;;;;;;10.05;6.03;;;512.80;2380.80;;;;;;5090391;28;20506;-64
2023/07/20 00:54:49;;;;;;;10.63;6.28;;;512.90;2380.80;;;;;;5090049;28;20035;-64
2023/07/20 00:57:17;;;;;;;13.50;5.43;;;512.90;2380.80;;;;;;5090607;28;20545;-69
2023/07/20 00:59:43;;;;;;;9.38;6.00;;;512.90;2380.80;;;;;;5089876;28;20028;-68
2023/07/20 01:02:09;;;;;;;13.02;6.07;;;512.90;2380.80;;;;;;5090469;28;20020;-64
2023/07/20 01:04:36;;;;;;;13.20;5.95;;;512.80;2380.80;;;;;;5090233;28;20360;-69
2023/07/20 01:07:28;;;;;;;18.35;5.95;;;512.70;2380.80;;;;;;5090388;28;20036;-62
2023/07/20 01:10:17;;;;;;;8.85;5.88;;;512.70;2380.80;;;;;;5090078;28;20099;-64
2023/07/20 01:12:45;;;;;;;12.98;5.15;;;512.60;2380.80;;;;;;5027324;28;20037;-64
2023/07/20 01:15:12;;;;;;;11.68;5.55;;;512.80;2380.80;;;;;;5026832;28;20041;-64
2023/07/20 01:17:37;;;;;;;10.15;5.25;;;512.80;2380.80;;;;;;5027326;28;20474;-64
2023/07/20 01:20:04;;;;;;;16.17;6.88;;;512.90;2380.80;;;;;;5027239;28;20030;-66
2023/07/20 01:23:10;;;;;;;13.45;5.97;;;512.70;2380.80;;;;;;5027579;28;20139;-64
2023/07/20 01:25:59;;;;;;;7.90;4.82;;;512.80;2380.80;;;;;;5027426;28;20029;-64
2023/07/20 01:28:36;;;;;;;22.73;5.30;;;512.80;2380.80;;;;;;5026550;28;20030;-67
2023/07/20 01:31:31;;;;;;;13.35;5.60;;;512.60;2380.80;;;;;;5026940;28;20033;-65
2023/07/20 01:34:00;;;;;;;11.45;5.32;;;512.50;2380.80;;;;;;5027104;28;20038;-65
2023/07/20 01:36:29;;;;;;;15.35;5.35;;;512.40;2380.80;;;;;;5027285;28;20193;-67
2023/07/20 01:38:56;;;;;;;16.40;6.05;;;512.50;2380.80;;;;;;5026808;28;20021;-65
2023/07/20 01:41:22;;;;;;;12.55;5.68;;;512.70;2380.80;;;;;;5027003;28;20066;-66
2023/07/20 01:43:47;;;;;;;13.77;5.72;;;512.80;2380.80;;;;;;5026942;28;20041;-64
2023/07/20 01:46:13;;;;;;;12.98;5.53;;;512.70;2380.80;;;;;;5026555;28;20476;-63
2023/07/20 01:48:39;;;;;;;15.25;6.00;;;512.70;2380.80;;;;;;5029130;28;20136;-63
2023/07/20 01:51:05;;;;;;;14.80;6.60;;;512.50;2380.80;;;;;;5080697;28;20032;-64
2023/07/20 01:53:30;;;;;;;9.40;5.40;;;512.70;2380.80;;;;;;5088982;28;20021;-65
2023/07/20 01:55:59;;;;;;;9.60;5.00;;;512.60;2380.80;;;;;;5089481;28;20455;-63
2023/07/20 01:58:25;;;;;;;13.13;5.93;;;512.80;2380.80;;;;;;5089272;28;20040;-63
2023/07/20 02:00:50;;;;;;;14.27;5.25;;;512.90;2380.80;;;;;;5088946;28;20020;-65
2023/07/20 02:03:16;;;;;;;8.73;5.05;;;512.80;2380.80;;;;;;5088894;28;20068;-63
2023/07/20 02:05:45;;;;;;;18.38;6.22;;;512.90;2380.80;;;;;;5088617;28;20028;-65
2023/07/20 02:08:11;;;;;;;16.13;6.10;;;512.90;2380.80;;;;;;5088626;28;20120;-63
2023/07/20 02:10:37;;;;;;;14.45;5.70;;;512.90;2380.80;;;;;;5089181;28;20062;-63
2023/07/20 02:13:02;;;;;;;15.40;5.72;;;512.90;2380.80;;;;;;5088703;28;20024;-62
2023/07/20 02:15:28;;;;;;;11.80;6.28;;;512.90;2380.80;;;;;;5089161;28;20043;-63
2023/07/20 02:17:54;;;;;;;9.88;5.13;;;512.90;2380.80;;;;;;5088762;28;20024;-62
2023/07/20 02:20:20;;;;;;;16.45;5.70;;;512.90;2380.80;;;;;;5088730;28;20034;-67
2023/07/20 02:22:46;;;;;;;16.52;5.68;;;537.60;2406.40;;;;;;5088943;28;20012;-64
2023/07/20 02:25:12;;;;;;;18.00;6.05;;;537.60;2406.40;;;;;;5088856;28;20093;-64
2023/07/20 02:27:38;;;;;;;11.82;5.55;;;537.60;2406.40;;;;;;5088959;28;20466;-62
2023/07/20 02:30:05;;;;;;;10.15;5.05;;;537.60;2406.40;;;;;;5088971;28;20110;-63
2023/07/20 02:32:34;;;;;;;14.25;5.82;;;512.90;2380.80;;;;;;5088784;28;20026;-62
2023/07/20 02:34:59;;;;;;;11.32;5.35;;;512.80;2380.80;;;;;;5087974;28;20039;-65
2023/07/20 02:37:25;;;;;;;15.32;5.80;;;512.80;2380.80;;;;;;5088248;28;20016;-68
2023/07/20 02:39:51;;;;;;;15.98;6.20;;;512.80;2380.80;;;;;;5092034;28;20028;-65
2023/07/20 02:42:17;;;;;;;12.85;6.53;;;512.80;2380.80;;;;;;5092907;28;20058;-64
2023/07/20 02:44:43;;;;;;;14.77;5.55;;;512.70;2380.80;;;;;;5092867;28;20077;-64
2023/07/20 02:47:08;;;;;;;10.10;4.95;;;512.60;2380.80;;;;;;5092573;28;20036;-64
2023/07/20 02:49:34;;;;;;;15.70;5.95;;;512.70;2380.80;;;;;;5093023;28;20028;-64
2023/07/20 02:52:00;;;;;;;12.80;6.00;;;512.70;2380.80;;;;;;5092423;28;20024;-65
2023/07/20 02:54:26;;;;;;;11.88;5.55;;;512.80;2380.80;;;;;;5092796;28;20115;-64
2023/07/20 02:56:52;;;;;;;13.07;5.40;;;512.80;2380.80;;;;;;5092308;28;20521;-64
2023/07/20 02:59:18;;;;;;;15.02;5.97;;;512.80;2380.80;;;;;;5092837;28;20119;-64
2023/07/20 03:01:44;;;;;;;13.85;5.78;;;512.90;2380.80;;;;;;5092151;28;20032;-67
2023/07/20 03:04:12;;;;;;;12.50;5.53;;;512.90;2380.80;;;;;;5092547;28;20026;-65
2023/07/20 03:06:38;;;;;;;11.23;5.43;;;537.60;2406.40;;;;;;5092465;28;20123;-63
2023/07/20 03:09:04;;;;;;;23.67;5.95;;;512.90;2380.80;;;;;;5092421;28;20095;-66
2023/07/20 03:11:32;;;;;;;12.70;6.15;;;537.60;2406.40;;;;;;5092296;28;20050;-64
2023/07/20 03:13:57;;;;;;;11.23;6.05;;;512.90;2380.80;;;;;;5092609;28;20432;-67
2023/07/20 03:16:24;;;;;;;12.20;6.10;;;512.80;2380.80;;;;;;5091904;28;20063;-64
2023/07/20 03:18:50;;;;;;;11.13;5.85;;;512.80;2380.80;;;;;;5091931;28;20474;-65
2023/07/20 03:21:16;;;;;;;10.85;5.82;;;512.80;2380.80;;;;;;5092159;28;20080;-64
2023/07/20 03:23:42;;;;;;;16.30;7.78;;;512.80;2380.80;;;;;;5092316;28;20108;-63
2023/07/20 03:26:08;;;;;;;13.90;6.80;;;512.80;2380.80;;;;;;5092093;28;20016;-66
2023/07/20 03:28:35;;;;;;;15.20;6.65;;;512.80;2380.80;;;;;;5092355;28;20100;-63
2023/07/20 03:31:01;;;;;;;15.68;6.88;;;512.90;2380.80;;;;;;5092271;28;20024;-63
2023/07/20 03:33:28;;;;;;;13.43;8.38;;;512.90;2380.80;;;;;;5092011;28;20459;-63
2023/07/20 03:35:55;;;;;;;17.70;10.55;;;537.60;2406.40;;;;;;5078601;28;20028;-67
2023/07/20 03:38:21;;;;;;;18.92;9.32;;;537.60;2406.40;;;;;;5091837;28;20020;-67
2023/07/20 03:40:57;;;;;;;19.88;9.90;;;512.90;2380.80;;;;;;5078550;28;20501;-67
2023/07/20 03:43:25;;;;;;;15.43;9.90;;;512.90;2380.80;;;;;;5091802;28;20689;-64
2023/07/20 03:45:51;;;;;;;14.75;9.77;;;512.90;2380.80;;;;;;5091647;28;20084;-63
2023/07/20 03:48:22;;;;;;;14.45;9.70;;;512.90;2380.80;;;;;;5091609;28;20085;-62
2023/07/20 03:50:50;;;;;;;14.35;9.95;;;512.90;2380.80;;;;;;5084693;28;20032;-68
2023/07/20 03:53:16;;;;;;;18.60;10.48;;;537.60;2406.40;;;;;;5070599;28;20518;-68
2023/07/20 03:55:46;;;;;;;23.20;11.23;;;537.60;2406.40;;;;;;5079372;28;20060;-63
2023/07/20 03:58:12;;;;;;;16.80;11.25;;;537.60;2406.40;;;;;;5074109;28;20059;-66
2023/07/20 04:00:38;;;;;;;17.23;12.75;;;537.70;2406.40;;;;;;5070646;28;20079;-66
2023/07/20 04:03:04;;;;;;;19.63;11.10;;;537.60;2406.40;;;;;;5070330;28;20078;-67
2023/07/20 04:05:30;;;;;;;13.95;11.68;;;537.70;2406.40;;;;;;5070471;28;20028;-66
2023/07/20 04:07:55;;;;;;;15.57;10.48;;;537.70;2406.40;;;;;;5070146;28;20379;-66
2023/07/20 04:10:21;;;;;;;19.83;13.93;;;537.70;2406.40;;;;;;5070003;28;20142;-63
2023/07/20 04:12:47;;;;;;;20.02;13.20;;;537.80;2406.40;;;;;;5072623;28;20013;-67
2023/07/20 04:15:13;;;;;;;21.85;14.45;;;537.70;2406.40;;;;;;5079425;28;20036;-62
2023/07/20 04:17:40;;;;;;;16.55;12.73;;;537.80;2406.40;;;;;;5088666;28;20032;-63
2023/07/20 04:20:07;;;;;;;16.08;12.95;;;537.80;2406.40;;;;;;5091421;28;20111;-65
2023/07/20 04:22:32;;;;;;;18.05;12.15;;;537.90;2406.40;;;;;;5090924;28;20047;-62
2023/07/20 04:24:58;;;;;;;22.45;14.35;;;538.00;2406.40;;;;;;5091445;28;20070;-69
2023/07/20 04:27:24;;;;;;;22.73;13.90;;;538.00;2406.40;;;;;;5091123;28;20020;-62
2023/07/20 04:29:50;;;;;;;22.27;14.20;;;538.00;2406.40;;;;;;5090830;28;20034;-64
2023/07/20 04:32:15;;;;;;;17.27;14.55;;;538.10;2406.40;;;;;;5091014;28;20024;-67
2023/07/20 04:34:41;;;;;;;21.08;13.82;;;538.00;2406.40;;;;;;5090770;28;20032;-68
2023/07/20 04:37:07;;;;;;;18.27;14.77;;;538.00;2406.40;;;;;;5090881;28;20023;-64
2023/07/20 04:39:33;;;;;;;17.92;14.00;;;538.00;2406.40;;;;;;5090529;28;20028;-64
2023/07/20 04:41:59;;;;;;;24.58;16.17;;;538.10;2406.40;;;;;;5090789;28;20039;-63
2023/07/20 04:44:25;;;;;;;24.35;15.63;;;538.10;2406.40;;;;;;5091284;28;20466;-65
2023/07/20 04:46:50;;;;;;;18.48;13.85;;;538.20;2406.40;;;;;;5089793;28;20042;-65
2023/07/20 04:49:16;;;;;;;17.50;14.65;;;538.10;2406.40;;;;;;5090903;28;20038;-67
2023/07/20 04:51:42;;;;;;;18.55;14.82;;;538.10;2406.40;;;;;;5089771;28;20371;-65
2023/07/20 04:54:07;;;;;;;16.40;13.73;;;538.20;2406.40;;;;;;5090705;28;20067;-67
2023/07/20 04:56:33;;;;;;;14.35;11.05;;;538.30;2406.40;;;;;;5090294;28;20423;-62
2023/07/20 04:58:59;;;;;;;16.10;11.27;;;538.20;2406.40;;;;;;5090975;28;20077;-64
2023/07/20 05:01:26;;;;;;;15.38;12.88;;;538.20;2406.40;;;;;;5089979;28;20484;-66
2023/07/20 05:03:52;;;;;;;15.48;11.70;;;538.20;2406.40;;;;;;5090337;28;20024;-66
2023/07/20 05:06:18;;;;;;;12.02;10.75;;;538.30;2406.40;;;;;;5089643;28;20032;-66
2023/07/20 05:08:44;;;;;;;14.82;11.70;;;538.30;2406.40;;;;;;5090078;28;20066;-65
2023/07/20 05:11:10;;;;;;;16.42;12.35;;;538.30;2406.40;;;;;;5089753;28;20113;-65
2023/07/20 05:13:36;;;;;;;19.13;12.25;;;538.30;2406.40;;;;;;5082910;28;20025;-66
2023/07/20 05:16:02;;;;;;;13.73;11.23;;;538.30;2406.40;;;;;;5069431;28;20033;-64
2023/07/20 05:18:28;;;;;;;16.02;11.20;;;538.20;2406.40;;;;;;5089146;28;20069;-64
2023/07/20 05:20:54;;;;;;;16.50;13.57;;;538.20;2406.40;;;;;;5089810;28;20060;-63
2023/07/20 05:23:21;;;;;;;19.65;12.98;;;538.10;2406.40;;;;;;5089915;28;20424;-65
2023/07/20 05:25:47;;;;;;;15.40;10.27;;;538.00;2406.40;;;;;;5090152;28;20020;-65
2023/07/20 05:28:13;;;;;;;17.70;9.80;;;538.10;2406.40;;;;;;5089822;28;20024;-61
2023/07/20 05:30:40;;;;;;;15.35;10.88;;;538.10;2406.40;;;;;;5089852;28;20110;-60
2023/07/20 05:33:06;;;;;;;13.20;11.30;;;538.00;2406.40;;;;;;5089854;28;20030;-59
2023/07/20 05:35:31;;;;;;;14.05;12.40;;;538.00;2406.40;;;;;;5089706;28;20032;-59
2023/07/20 05:37:57;;;;;;;16.60;11.15;;;538.10;2406.40;;;;;;5089987;28;20020;-60
2023/07/20 05:40:23;;;;;;;13.13;10.50;;;538.20;2406.40;;;;;;5089347;28;20489;-59
2023/07/20 05:42:51;;;;;;;12.82;9.07;;;538.40;2406.40;;;;;;5086529;28;20214;-59
2023/07/20 05:45:17;;;;;;;12.05;9.02;;;538.50;2406.40;;;;;;5069379;28;20036;-59
2023/07/20 05:47:43;;;;;;;14.65;9.55;;;563.30;2432.00;;;;;;5086273;28;20028;-60
2023/07/20 05:50:10;;;;;;;15.00;9.55;;;563.60;2432.00;;;;;;5089044;28;20030;-59
2023/07/20 05:52:38;;;;;;;10.82;9.60;;;563.80;2432.00;;;;;;5089184;28;20019;-59
2023/07/20 05:55:04;;;;;;;15.98;9.57;;;;;;;;;;5088786;28;20070;-59
2023/07/20 05:57:29;;;;;;;10.38;7.72;;;564.10;2432.00;;;;;;5089239;28;20024;-60
2023/07/20 05:59:55;;;;;;;13.30;9.23;;;614.40;2432.00;;;;;;5088169;28;20027;-60
2023/07/20 06:02:21;;;;;;;14.05;10.57;;;615.00;2432.00;;;;;;5074925;28;20035;-59
2023/07/20 06:04:47;;;;;;;13.00;10.60;;;;;;;;;;5076980;28;20055;-59
2023/07/20 06:07:13;;;;;;;12.00;9.82;;;691.20;2432.00;;;;;;5088862;28;20467;-59
2023/07/20 06:09:40;;;;;;;12.70;9.95;;;717.70;2432.00;;;;;;5089477;28;20088;-63
2023/07/20 06:12:06;;;;;;;11.27;9.88;;;691.90;2432.00;;;;;;5089207;28;20028;-61
2023/07/20 06:14:31;;;;;;;15.68;10.25;;;691.60;2432.00;;;;;;5074561;28;20082;-62
2023/07/20 06:16:57;;;;;;;19.23;11.90;;;691.90;2432.00;;;;;;5088970;28;20470;-62
2023/07/20 06:19:23;;;;;;;17.10;13.18;;;691.90;2432.00;;;;;;5088600;28;20423;-62
2023/07/20 06:21:52;;;;;;;15.20;13.43;;;666.50;2432.00;;;;;;5089043;28;20102;-62
2023/07/20 06:24:17;;;;;;;18.02;12.88;;;793.70;2432.00;;;;;;5089169;28;20500;-62
2023/07/20 06:26:43;;;;;;;19.90;13.00;;;921.80;1971.20;;;;;;5088822;28;20103;-60
2023/07/20 06:29:10;;;;;;;13.10;11.27;;;998.40;1715.20;;;;;;5088822;28;20486;-62
2023/07/20 06:31:36;;;;;;;15.48;13.45;;;1024.00;1587.20;;;;;;5087257;28;20016;-70
2023/07/20 06:34:02;;;;;;;12.57;10.40;;;1050.40;1536.00;;;;;;5076937;28;20043;-68
2023/07/20 06:36:28;;;;;;;11.90;10.30;;;1100.80;1433.60;;;;;;5089276;28;20028;-71
2023/07/20 06:38:55;;;;;;;11.20;10.15;;;1100.80;1356.80;;;;;;5088823;28;20021;-64
2023/07/20 06:41:21;;;;;;;11.15;10.10;;;1101.20;1356.80;;;;;;5088445;28;20034;-64
2023/07/20 06:43:47;;;;;;;10.77;9.60;;;1101.60;1356.80;;;;;;5088974;28;20020;-69
2023/07/20 06:46:13;;;;;;;9.95;9.15;;;1101.50;1331.20;;;;;;5088342;28;20462;-68
2023/07/20 06:48:38;;;;;;;10.73;9.65;;;1101.20;1331.20;;;;;;5088763;28;20087;-71
2023/07/20 06:51:04;;;;;;;10.90;9.85;;;1076.10;1331.20;;;;;;5088477;28;20020;-70
2023/07/20 06:53:30;;;;;;;11.60;10.35;;;1126.80;1305.60;;;;;;5088612;28;20115;-68
2023/07/20 06:55:58;;;;;;;11.82;10.73;;;1127.00;1280.00;;;;;;5088538;28;20024;-72
2023/07/20 06:58:25;;;;;;;11.65;9.45;;;1101.60;1280.00;;;;;;5088794;28;20023;-71
2023/07/20 07:00:51;;;;;;;10.27;9.18;;;1101.70;1254.40;;;;;;5088612;28;20028;-68
2023/07/20 07:03:17;;;;;;;11.85;10.30;;;1050.40;1356.80;;;;;;5088599;28;20024;-69
2023/07/20 07:05:44;;;;;;;9.70;8.73;;;1050.20;1382.40;;;;;;5088544;28;20390;-67
2023/07/20 07:08:10;;;;;;;13.52;9.25;;;1024.40;1433.60;;;;;;5074903;28;20016;-69
2023/07/20 07:10:36;;;;;;;9.60;8.60;;;1024.10;1433.60;;;;;;5088581;28;20020;-71
2023/07/20 07:13:02;;;;;;;10.82;9.65;;;999.20;1459.20;;;;;;5088305;28;20486;-68
2023/07/20 07:15:28;;;;;;;12.13;9.93;;;1024.00;1459.20;;;;;;5088615;28;20118;-69
2023/07/20 07:17:54;;;;;;;12.25;9.35;;;1024.40;1433.60;;;;;;5088215;28;20491;-69
2023/07/20 07:20:20;;;;;;;11.18;10.02;;;1050.50;1382.40;;;;;;5088609;28;20038;-68
2023/07/20 07:22:47;;;;;;;11.55;10.48;;;1050.40;1382.40;;;;;;5088488;28;20016;-71
2023/07/20 07:25:14;;;;;;;11.27;10.38;;;1050.40;1408.00;;;;;;5088921;28;20024;-70
2023/07/20 07:27:40;;;;;;;11.20;10.30;;;1075.90;1331.20;;;;;;5091947;28;20535;-70
2023/07/20 07:30:06;;;;;;;12.38;11.18;;;1101.70;1305.60;;;;;;5092453;28;20032;-67
2023/07/20 07:32:32;;;;;;;10.85;9.82;;;1126.90;1280.00;;;;;;5091993;28;20422;-70
2023/07/20 07:35:00;;;;;;;11.98;10.90;;;1126.50;1305.60;;;;;;5092429;28;20123;-66
2023/07/20 07:37:26;;;;;;;12.60;11.25;;;1152.10;1228.80;;;;;;5092106;28;20024;-72
2023/07/20 07:39:52;;;;;;;13.65;12.55;;;1177.60;1228.80;;;;;;5091828;28;20043;-72
2023/07/20 07:42:18;;;;;;;11.48;10.60;;;1203.20;1203.20;;;;;;5091563;28;20020;-72
2023/07/20 07:44:44;;;;;;;12.45;11.55;;;1203.70;1152.00;;;;;;5076702;28;20039;-71
2023/07/20 07:47:10;;;;;;;14.45;12.93;;;1203.30;1177.60;;;;;;5082139;28;20048;-73
2023/07/20 07:49:36;;;;;;;13.20;12.13;;;1228.80;1152.00;;;;;;5073129;28;20108;-71
2023/07/20 07:52:04;;;;;;;12.13;11.23;;;1228.80;1152.00;;;;;;5071465;28;20120;-70
2023/07/20 07:54:30;;;;;;;12.77;11.43;;;1229.70;1100.80;;;;;;5090221;28;20028;-70
2023/07/20 07:56:56;;;;;;;12.95;11.85;;;1229.30;1126.40;;;;;;5074543;28;20069;-70
2023/07/20 07:59:22;;;;;;;13.25;12.05;;;1229.20;1126.40;;;;;;5083510;28;20535;-70
2023/07/20 08:01:48;;;;;;;12.43;11.38;;;1229.30;1100.80;;;;;;5083750;28;20355;-72
2023/07/20 08:04:13;;;;;;;11.10;10.40;;;1254.40;1100.80;;;;;;5085262;28;20023;-70
2023/07/20 08:06:40;;;;;;;11.65;10.65;;;1229.20;1100.80;;;;;;5071283;28;20416;-70
2023/07/20 08:09:05;;;;;;;10.98;10.05;;;1229.30;1075.20;;;;;;5084536;28;20374;-72
2023/07/20 08:11:33;;;;;;;10.48;9.75;;;1229.00;1100.80;;;;;;5091270;28;20028;-71
2023/07/20 08:14:00;;;;;;;10.75;9.75;;;1203.30;1100.80;;;;;;5091469;28;20470;-73
2023/07/20 08:16:26;;;;;;;11.50;10.50;;;1203.40;1075.20;;;;;;5091302;28;20127;-72
2023/07/20 08:18:52;;;;;;;10.40;9.60;;;1203.90;1075.20;;;;;;5091345;28;20034;-72
2023/07/20 08:21:18;;;;;;;10.25;9.50;;;1203.20;1100.80;;;;;;5091728;28;20111;-71
2023/07/20 08:23:44;;;;;;;9.32;8.63;;;1152.90;1100.80;;;;;;5090981;28;20024;-73
2023/07/20 08:26:10;;;;;;;9.30;8.45;;;1127.00;1152.00;;;;;;5090951;28;20023;-73
2023/07/20 08:28:35;;;;;;;8.35;6.45;;;1075.50;1203.20;;;;;;5091279;28;20106;-70
2023/07/20 08:31:02;;;;;;;6.28;5.78;;;999.30;1305.60;;;;;;5091111;28;20020;-70
2023/07/20 08:33:29;;;;;;;9.48;7.50;;;973.10;1356.80;;;;;;5091065;28;20062;-71
2023/07/20 08:35:56;;;;;;;9.57;7.05;;;922.50;1484.80;;;;;;5091113;28;20070;-69
2023/07/20 08:38:22;;;;;;;8.70;6.68;;;922.20;1459.20;;;;;;5090665;28;20028;-71
2023/07/20 08:40:48;;;;;;;6.93;6.22;;;896.40;1459.20;;;;;;5091021;28;20488;-71
2023/07/20 08:43:18;;;;;;;8.52;6.68;;;;;;;;;;5090501;28;20051;-71
2023/07/20 08:45:45;;;;;;;7.35;6.53;;;871.10;1536.00;;;;;;5090984;28;20108;-71
2023/07/20 08:48:12;;;;;;;9.77;6.28;;;870.90;1561.60;;;;;;5089927;28;20051;-71
2023/07/20 08:50:38;;;;;;;9.15;7.25;;;870.70;1638.40;;;;;;5091171;28;20448;-70
2023/07/20 08:53:05;;;;;;;7.38;6.47;;;845.50;1664.00;;;;;;5090133;28;20028;-69
2023/07/20 08:55:31;;;;;;;6.85;6.20;;;870.50;1612.80;;;;;;5090484;28;20031;-68
2023/07/20 08:58:02;;;;;;;7.18;6.20;;;870.60;1612.80;;;;;;5090433;28;20493;-69
2023/07/20 09:00:29;;;;;;;7.55;5.53;;;845.70;1664.00;;;;;;5090848;28;20060;-69
2023/07/20 09:02:55;;;;;;;6.60;5.78;;;845.60;1638.40;;;;;;5090076;28;20028;-70
2023/07/20 09:05:27;;;;;;;10.75;8.10;;;845.70;1638.40;;;;;;5090580;28;20500;-70
2023/07/20 09:07:55;;;;;;;7.07;6.38;;;845.50;1689.60;;;;;;5089914;28;20477;-69
2023/07/20 09:10:22;;;;;;;6.95;6.07;;;845.20;1689.60;;;;;;5080439;28;20024;-70
2023/07/20 09:12:48;;;;;;;8.65;6.30;;;845.40;1664.00;;;;;;5086852;28;20016;-70
2023/07/20 09:15:15;;;;;;;9.60;6.40;;;845.20;1740.80;;;;;;5089983;28;20027;-69
2023/07/20 09:17:49;;;;;;;7.88;6.20;;;845.40;1740.80;;;;;;5089865;28;20458;-70
2023/07/20 09:20:20;;;;;;;6.90;5.80;;;845.20;1689.60;;;;;;5090248;28;20467;-70
2023/07/20 09:22:46;;;;;;;6.82;6.13;;;820.10;1689.60;;;;;;5090412;28;20070;-70
2023/07/20 09:25:12;;;;;;;8.18;5.88;;;844.90;1740.80;;;;;;5089753;28;20449;-70
2023/07/20 09:27:39;;;;;;;7.85;6.03;;;844.90;1715.20;;;;;;5089985;28;20073;-70
2023/07/20 09:30:10;;;;;;;7.55;6.22;;;844.90;1689.60;;;;;;5090528;28;20020;-69
2023/07/20 09:32:41;;;;;;;7.57;6.20;;;844.90;1715.20;;;;;;5089332;28;20515;-69
2023/07/20 09:35:12;;;;;;;10.85;7.00;;;844.90;1740.80;;;;;;5089724;28;20039;-70
2023/07/20 09:37:38;;;;;;;7.20;5.30;;;820.10;1766.40;;;;;;5090013;28;20024;-70
2023/07/20 09:40:07;;;;;;;9.32;5.85;;;820.10;1740.80;;;;;;5089411;28;20050;-70
2023/07/20 09:42:32;;;;;;;7.47;5.63;;;820.10;1740.80;;;;;;5089778;28;20028;-69
2023/07/20 09:44:59;;;;;;;6.13;5.15;;;820.10;1715.20;;;;;;5089695;28;20024;-69
2023/07/20 09:47:26;;;;;;;7.35;4.72;;;819.80;1689.60;;;;;;5088991;28;20101;-69
2023/07/20 09:49:59;;;;;;;5.65;5.13;;;819.80;1689.60;;;;;;5088749;28;20039;-69
2023/07/20 09:52:26;;;;;;;6.38;4.80;;;819.90;1766.40;;;;;;5089595;28;20023;-70
2023/07/20 09:54:54;;;;;;;8.10;4.95;;;819.50;1664.00;;;;;;5088921;28;20028;-70
2023/07/20 09:57:21;;;;;;;5.78;5.15;;;794.20;1715.20;;;;;;5089572;28;20055;-68
2023/07/20 09:59:47;;;;;;;17.27;6.43;;;793.80;1715.20;;;;;;5089391;28;20032;-70
2023/07/20 10:02:30;;;;;;;5.93;5.00;;;793.90;1740.80;;;;;;5089223;28;20024;-69
2023/07/20 10:05:00;;;;;;;5.70;5.10;;;793.90;1715.20;;;;;;5089038;28;20301;-68
2023/07/20 10:07:27;;;;;;;6.88;5.05;;;793.70;1715.20;;;;;;5089354;28;20020;-69
2023/07/20 10:09:56;;;;;;;4.88;4.32;;;794.00;1817.60;;;;;;5088827;28;20032;-70
2023/07/20 10:12:23;;;;;;;8.15;4.63;;;794.40;1766.40;;;;;;5089026;28;20031;-68
2023/07/20 10:15:12;;;;;;;5.55;5.00;;;794.40;1740.80;;;;;;5085747;28;20067;-69
2023/07/20 10:17:49;;;;;;;5.78;5.15;;;819.20;1766.40;;;;;;5077680;28;20028;-69
2023/07/20 10:20:19;;;;;;;6.22;3.95;;;794.40;1792.00;;;;;;5087908;28;20546;-70
2023/07/20 10:22:47;;;;;;;4.78;3.92;;;794.50;1715.20;;;;;;5087573;28;20020;-70
2023/07/20 10:25:14;;;;;;;5.95;4.55;;;794.10;1638.40;;;;;;5087375;28;20028;-69
2023/07/20 10:27:40;;;;;;;9.43;4.75;;;794.50;1715.20;;;;;;5087787;28;20016;-70
2023/07/20 10:30:06;;;;;;;6.88;4.95;;;794.40;1715.20;;;;;;5086881;28;20032;-71
2023/07/20 10:32:33;;;;;;;6.68;4.70;;;794.40;1715.20;;;;;;5085876;28;20034;-69
2023/07/20 10:34:59;;;;;;;12.32;4.72;;;794.50;1715.20;;;;;;5087298;28;20076;-70
2023/07/20 10:37:46;;;;;;;5.68;4.20;;;794.00;1689.60;;;;;;5087347;28;20051;-70
2023/07/20 10:40:30;;;;;;;6.60;4.10;;;794.10;1689.60;;;;;;5087010;28;20364;-70
2023/07/20 10:43:01;;;;;;;5.75;4.05;;;794.20;1664.00;;;;;;5086848;28;20012;-70
2023/07/20 10:45:39;;;;;;;5.68;4.28;;;794.20;1638.40;;;;;;5087462;28;20381;-69
2023/07/20 10:48:06;;;;;;;5.82;4.07;;;794.00;1638.40;;;;;;5086774;28;20115;-70
2023/07/20 10:50:34;;;;;;;8.32;4.47;;;794.10;1715.20;;;;;;5087224;28;20032;-69
2023/07/20 10:53:17;;;;;;;7.55;4.25;;;794.10;1766.40;;;;;;5086753;28;20216;-70
2023/07/20 10:55:44;;;;;;;5.85;4.65;;;794.00;1740.80;;;;;;5086664;28;20535;-69
2023/07/20 10:58:15;;;;;;;7.63;5.03;;;794.00;1740.80;;;;;;5086970;28;20048;-67
2023/07/20 11:01:00;;;;;;;6.45;4.80;;;794.10;1766.40;;;;;;5090450;28;20027;-70
2023/07/20 11:03:31;;;;;;;4.35;3.50;;;794.20;1740.80;;;;;;5091291;28;20633;-70
2023/07/20 11:05:58;;;;;;;5.80;4.38;;;794.10;1766.40;;;;;;5093227;28;20107;-69
2023/07/20 11:08:41;;;;;;;24.00;7.13;;;794.20;1740.80;;;;;;5092683;28;20103;-68
2023/07/20 11:11:27;;;;;;;14.10;5.32;;;794.20;1766.40;;;;;;5092459;28;20036;-69
2023/07/20 11:14:02;;;;;;;4.50;3.58;;;794.00;1740.80;;;;;;5092255;28;20028;-69
2023/07/20 11:16:44;;;;;;;6.40;3.55;;;794.00;1715.20;;;;;;5092236;28;20028;-65
2023/07/20 11:19:20;;;;;;;12.13;5.22;;;794.00;1740.80;;;;;;5092728;28;20036;-67
2023/07/20 11:21:50;;;;;;;10.82;4.75;;;794.20;1689.60;;;;;;5092545;28;20027;-69
2023/07/20 11:24:16;;;;;;;7.35;4.35;;;794.40;1689.60;;;;;;5092503;28;20131;-69
2023/07/20 11:26:43;;;;;;;5.43;4.15;;;794.10;1740.80;;;;;;5092032;28;20130;-68
2023/07/20 11:29:09;;;;;;;6.45;4.25;;;794.20;1689.60;;;;;;5092080;28;20031;-69
2023/07/20 11:31:39;;;;;;;6.65;4.40;;;794.10;1715.20;;;;;;5091015;28;20020;-68
2023/07/20 11:34:05;;;;;;;6.90;4.57;;;794.20;1766.40;;;;;;5091184;28;20142;-66
2023/07/20 11:36:31;;;;;;;5.40;4.68;;;794.20;1766.40;;;;;;5090983;28;20509;-67
2023/07/20 11:38:58;;;;;;;5.20;4.50;;;794.30;1817.60;;;;;;5075525;28;20021;-68
2023/07/20 11:41:26;;;;;;;8.80;4.55;;;794.30;1740.80;;;;;;5071449;28;20039;-66
2023/07/20 11:43:52;;;;;;;6.18;4.25;;;794.50;1792.00;;;;;;5078122;28;20032;-65
2023/07/20 11:46:18;;;;;;;6.53;4.63;;;794.50;1766.40;;;;;;5091720;28;20034;-67
2023/07/20 11:48:43;;;;;;;4.72;4.07;;;819.20;1792.00;;;;;;5074701;28;20120;-67
2023/07/20 11:51:16;;;;;;;6.72;4.65;;;819.40;1740.80;;;;;;5084406;28;20557;-66
2023/07/20 11:53:44;;;;;;;7.35;4.53;;;819.60;1766.40;;;;;;5091379;28;20039;-67
2023/07/20 11:56:11;;;;;;;6.22;5.15;;;819.80;1740.80;;;;;;5091646;28;20028;-66
2023/07/20 11:58:41;;;;;;;6.63;5.07;;;819.70;1689.60;;;;;;5091849;28;20012;-67
2023/07/20 12:01:06;;;;;;;5.65;5.10;;;794.50;1715.20;;;;;;5091895;28;20172;-68
2023/07/20 12:03:32;;;;;;;5.05;4.55;;;794.50;1766.40;;;;;;5091434;28;20474;-66
2023/07/20 12:06:07;;;;;;;6.72;5.00;;;819.20;1766.40;;;;;;5089042;28;20027;-65
2023/07/20 12:08:33;;;;;;;7.07;5.25;;;819.40;1766.40;;;;;;5082105;28;20409;-67
2023/07/20 12:10:59;;;;;;;8.52;4.50;;;819.60;1740.80;;;;;;5083409;28;20104;-67